Time;durP1;ratioP1;P1;durP2;ratioP2;P2;SDS_P1;SDS_P2;PMS_P1;PMS_P2;Temp;Humidity;BMP_temperature;BMP_pressure;BME280_temperature;BME280_humidity;BME280_pressure;Samples;Min_cycle;Max_cycle;Signal;HPM_P1;HPM_P2
2022/07/13 00:01:06;;;;;;;16.10;14.40;;;20.70;99.90;;;;;;5024222;28;20519;-58
2022/07/13 00:03:32;;;;;;;16.52;14.85;;;20.70;99.90;;;;;;5006661;28;20511;-58
2022/07/13 00:05:57;;;;;;;16.55;14.85;;;20.70;99.90;;;;;;5005188;28;20049;-60
2022/07/13 00:08:23;;;;;;;16.33;14.52;;;20.60;99.90;;;;;;5009504;28;20095;-57
2022/07/13 00:10:49;;;;;;;17.10;15.40;;;20.60;99.90;;;;;;5008488;28;20033;-59
2022/07/13 00:13:15;;;;;;;17.35;15.57;;;20.60;99.90;;;;;;4980045;28;20043;-60
2022/07/13 00:15:40;;;;;;;15.70;14.10;;;20.60;99.90;;;;;;5019001;28;20044;-59
2022/07/13 00:18:06;;;;;;;18.83;15.48;;;20.60;99.90;;;;;;5001077;28;20037;-60
2022/07/13 00:20:32;;;;;;;18.08;16.38;;;20.60;99.90;;;;;;5006347;28;20042;-61
2022/07/13 00:22:58;;;;;;;19.52;16.15;;;20.50;99.90;;;;;;5006704;28;20056;-58
2022/07/13 00:25:23;;;;;;;17.65;14.57;;;20.50;99.90;;;;;;4974513;28;20045;-57
2022/07/13 00:27:49;;;;;;;15.35;13.75;;;20.50;99.90;;;;;;5010759;28;20088;-59
2022/07/13 00:30:15;;;;;;;17.75;15.88;;;20.50;99.90;;;;;;5021676;28;20335;-60
2022/07/13 00:32:41;;;;;;;17.80;16.10;;;20.50;99.90;;;;;;4998331;28;20108;-57
2022/07/13 00:35:07;;;;;;;21.30;16.73;;;20.50;99.90;;;;;;5006913;28;20038;-60
2022/07/13 00:37:33;;;;;;;16.27;14.68;;;20.50;99.90;;;;;;5011885;28;20034;-61
2022/07/13 00:39:58;;;;;;;15.52;14.02;;;20.50;99.90;;;;;;5011066;28;20428;-59
2022/07/13 00:42:24;;;;;;;16.08;14.40;;;20.50;99.90;;;;;;4997992;28;20033;-59
2022/07/13 00:44:50;;;;;;;17.63;15.80;;;20.40;99.90;;;;;;5010174;28;20033;-60
2022/07/13 00:47:16;;;;;;;16.65;15.15;;;20.50;99.90;;;;;;5007451;28;20049;-58
2022/07/13 00:49:42;;;;;;;16.27;14.63;;;20.50;99.90;;;;;;5016164;28;20112;-62
2022/07/13 00:52:07;;;;;;;17.50;15.60;;;20.40;99.90;;;;;;5031713;28;20504;-58
2022/07/13 00:54:35;;;;;;;16.77;15.07;;;20.40;99.90;;;;;;5034886;28;20665;-61
2022/07/13 00:57:04;;;;;;;14.95;13.55;;;20.40;99.90;;;;;;5026620;28;20462;-62
2022/07/13 00:59:30;;;;;;;15.95;14.45;;;20.40;99.90;;;;;;5031264;28;20049;-61
2022/07/13 01:01:55;;;;;;;20.30;15.80;;;20.40;99.90;;;;;;5024134;28;20392;-59
2022/07/13 01:04:23;;;;;;;15.10;13.65;;;20.40;99.90;;;;;;5029321;28;20037;-61
2022/07/13 01:06:52;;;;;;;15.73;14.13;;;20.40;99.90;;;;;;5030143;28;20045;-60
2022/07/13 01:09:18;;;;;;;16.33;14.43;;;20.40;99.90;;;;;;5028441;28;20049;-60
2022/07/13 01:11:45;;;;;;;15.18;13.60;;;20.40;99.90;;;;;;5030911;28;20052;-61
2022/07/13 01:14:11;;;;;;;16.02;14.45;;;20.40;99.90;;;;;;5035934;28;20102;-58
2022/07/13 01:16:38;;;;;;;17.05;15.23;;;20.40;99.90;;;;;;5029578;28;20495;-58
2022/07/13 01:19:05;;;;;;;16.60;14.90;;;20.40;99.90;;;;;;5035354;28;20092;-62
2022/07/13 01:21:36;;;;;;;20.10;16.50;;;20.40;99.90;;;;;;5031360;28;20120;-62
2022/07/13 01:24:02;;;;;;;17.17;14.95;;;20.40;99.90;;;;;;5035751;28;20161;-61
2022/07/13 01:26:28;;;;;;;17.75;14.88;;;20.40;99.90;;;;;;4998372;28;20518;-60
2022/07/13 01:28:53;;;;;;;20.20;15.88;;;20.40;99.90;;;;;;5040444;28;20041;-60
2022/07/13 01:31:45;;;;;;;17.85;16.00;;;20.40;99.90;;;;;;5017811;28;20042;-61
2022/07/13 01:34:11;;;;;;;15.35;13.85;;;20.40;99.90;;;;;;5027607;28;20053;-59
2022/07/13 01:36:38;;;;;;;15.95;14.32;;;20.40;99.90;;;;;;5030952;28;20045;-60
2022/07/13 01:39:05;;;;;;;16.13;14.48;;;20.40;99.90;;;;;;5039318;28;20284;-61
2022/07/13 01:41:30;;;;;;;16.08;14.43;;;20.40;99.90;;;;;;5035643;28;20046;-61
2022/07/13 01:43:57;;;;;;;17.08;15.40;;;20.40;99.90;;;;;;5030227;28;20116;-58
2022/07/13 01:46:24;;;;;;;18.98;17.05;;;20.50;99.90;;;;;;5027500;28;20045;-60
2022/07/13 01:48:51;;;;;;;15.82;14.18;;;20.40;99.90;;;;;;5030656;28;20041;-59
2022/07/13 01:51:16;;;;;;;17.00;15.30;;;20.40;99.90;;;;;;5029936;28;20052;-57
2022/07/13 01:53:42;;;;;;;16.38;14.65;;;20.50;99.90;;;;;;5015060;28;20120;-58
2022/07/13 01:56:08;;;;;;;17.73;15.90;;;20.50;99.90;;;;;;5037047;28;20399;-60
2022/07/13 01:58:34;;;;;;;15.85;13.95;;;20.50;99.90;;;;;;5029401;28;20099;-60
2022/07/13 02:00:59;;;;;;;15.50;13.98;;;20.40;99.90;;;;;;5029517;28;20056;-62
2022/07/13 02:03:28;;;;;;;17.10;15.32;;;20.50;99.90;;;;;;5029929;28;20047;-62
2022/07/13 02:05:54;;;;;;;17.85;16.05;;;20.50;99.90;;;;;;5028009;28;20056;-59
2022/07/13 02:08:20;;;;;;;16.70;14.73;;;20.40;99.90;;;;;;5024315;28;20037;-60
2022/07/13 02:10:46;;;;;;;15.40;13.82;;;20.50;99.90;;;;;;5030667;28;20049;-62
2022/07/13 02:13:12;;;;;;;17.77;14.90;;;20.50;99.90;;;;;;5023467;28;20068;-61
2022/07/13 02:15:38;;;;;;;14.20;11.98;;;20.50;99.90;;;;;;5031025;28;20029;-60
2022/07/13 02:18:04;;;;;;;13.57;12.20;;;20.50;99.90;;;;;;5009828;28;20042;-60
2022/07/13 02:20:30;;;;;;;17.33;13.80;;;20.50;99.90;;;;;;5037325;28;20477;-59
2022/07/13 02:22:56;;;;;;;15.00;13.55;;;20.50;99.90;;;;;;5009484;28;20092;-62
2022/07/13 02:25:21;;;;;;;17.70;14.40;;;20.50;99.90;;;;;;5021123;28;20049;-60
2022/07/13 02:27:47;;;;;;;16.55;14.85;;;20.50;99.90;;;;;;5026434;28;20042;-61
2022/07/13 02:30:14;;;;;;;15.65;13.48;;;20.50;99.90;;;;;;5025639;28;20046;-59
2022/07/13 02:32:41;;;;;;;14.85;12.88;;;20.50;99.90;;;;;;5027576;28;20401;-57
2022/07/13 02:35:07;;;;;;;15.65;14.05;;;20.50;99.90;;;;;;5006712;28;20038;-61
2022/07/13 02:37:33;;;;;;;13.68;12.35;;;20.50;99.90;;;;;;5030449;28;20052;-61
2022/07/13 02:39:59;;;;;;;14.02;12.57;;;20.50;99.90;;;;;;5028318;28;20037;-61
2022/07/13 02:42:25;;;;;;;13.43;11.80;;;20.50;99.90;;;;;;5027815;28;20551;-61
2022/07/13 02:44:54;;;;;;;13.77;12.05;;;20.50;99.90;;;;;;5027757;28;20037;-60
2022/07/13 02:47:19;;;;;;;12.68;11.38;;;20.60;99.90;;;;;;5041679;28;20057;-60
2022/07/13 02:49:45;;;;;;;13.90;12.50;;;20.60;99.90;;;;;;5030454;28;20164;-60
2022/07/13 02:52:11;;;;;;;13.20;11.75;;;20.60;99.90;;;;;;5028325;28;20045;-61
2022/07/13 02:54:37;;;;;;;12.75;11.45;;;20.60;99.90;;;;;;5033324;28;20037;-59
2022/07/13 02:57:05;;;;;;;13.57;12.07;;;20.60;99.90;;;;;;5041925;28;20045;-59
2022/07/13 02:59:37;;;;;;;12.95;11.55;;;20.50;99.90;;;;;;5029091;28;20419;-60
2022/07/13 03:02:04;;;;;;;14.45;11.50;;;20.50;99.90;;;;;;5024935;28;20052;-58
2022/07/13 03:04:31;;;;;;;13.95;11.90;;;20.50;99.90;;;;;;4990767;28;20033;-60
2022/07/13 03:07:03;;;;;;;11.73;10.63;;;20.50;99.90;;;;;;5025420;28;20037;-62
2022/07/13 03:09:34;;;;;;;12.88;11.35;;;20.50;99.90;;;;;;5013859;28;20034;-59
2022/07/13 03:12:00;;;;;;;12.55;11.27;;;20.50;99.90;;;;;;5037851;28;20511;-60
2022/07/13 03:14:25;;;;;;;13.77;12.40;;;20.50;99.90;;;;;;5024005;28;20045;-57
2022/07/13 03:16:51;;;;;;;13.52;12.20;;;20.50;99.90;;;;;;5004806;28;20049;-58
2022/07/13 03:19:17;;;;;;;13.88;12.35;;;20.40;99.90;;;;;;5030083;28;20040;-60
2022/07/13 03:21:42;;;;;;;15.55;12.85;;;20.40;99.90;;;;;;5031437;28;20046;-61
2022/07/13 03:24:08;;;;;;;17.65;14.55;;;20.40;99.90;;;;;;5028376;28;20045;-61
2022/07/13 03:26:34;;;;;;;16.08;13.85;;;20.40;99.90;;;;;;5029527;28;20041;-61
2022/07/13 03:29:00;;;;;;;14.30;11.65;;;20.40;99.90;;;;;;5046582;28;20072;-61
2022/07/13 03:31:26;;;;;;;14.82;12.07;;;20.40;99.90;;;;;;5031840;28;20095;-60
2022/07/13 03:33:51;;;;;;;14.80;12.88;;;20.40;99.90;;;;;;5028831;28;20546;-60
2022/07/13 03:36:17;;;;;;;12.55;11.25;;;20.40;99.90;;;;;;5030193;28;20069;-61
2022/07/13 03:38:43;;;;;;;12.88;11.23;;;20.40;99.90;;;;;;5040501;28;20099;-62
2022/07/13 03:41:08;;;;;;;13.95;12.52;;;20.40;99.90;;;;;;5032142;28;20076;-60
2022/07/13 03:43:34;;;;;;;13.60;11.70;;;20.40;99.90;;;;;;5000838;28;20133;-60
2022/07/13 03:46:00;;;;;;;13.85;12.15;;;20.40;99.90;;;;;;5030730;28;20037;-60
2022/07/13 03:48:26;;;;;;;12.35;10.93;;;20.40;99.90;;;;;;5029980;28;20102;-61
2022/07/13 03:50:51;;;;;;;13.30;11.20;;;20.40;99.90;;;;;;5009528;28;20132;-60
2022/07/13 03:53:17;;;;;;;11.50;10.40;;;20.40;99.90;;;;;;5032017;28;20342;-59
2022/07/13 03:55:43;;;;;;;12.65;10.85;;;20.40;99.90;;;;;;5032811;28;20038;-60
2022/07/13 03:58:10;;;;;;;12.02;10.88;;;20.40;99.90;;;;;;4995753;28;20037;-62
2022/07/13 04:00:37;;;;;;;15.05;11.48;;;20.40;99.90;;;;;;5043328;28;20038;-61
2022/07/13 04:03:03;;;;;;;11.13;10.10;;;20.50;99.90;;;;;;5019883;28;20117;-61
2022/07/13 04:05:29;;;;;;;11.07;9.63;;;20.50;99.90;;;;;;5028867;28;20499;-61
2022/07/13 04:07:55;;;;;;;11.50;10.27;;;20.50;99.90;;;;;;5024756;28;20041;-61
2022/07/13 04:10:21;;;;;;;10.52;9.45;;;20.50;99.90;;;;;;5018573;28;20042;-61
2022/07/13 04:12:47;;;;;;;10.25;9.13;;;20.50;99.90;;;;;;5031451;28;20048;-60
2022/07/13 04:15:14;;;;;;;10.77;8.63;;;20.50;99.90;;;;;;5025187;28;20404;-59
2022/07/13 04:17:41;;;;;;;11.63;9.88;;;20.60;99.90;;;;;;5026179;28;20504;-60
2022/07/13 04:20:07;;;;;;;12.35;8.35;;;20.50;99.90;;;;;;5027676;28;20037;-59
2022/07/13 04:22:34;;;;;;;9.30;8.32;;;20.50;99.90;;;;;;5018379;28;20095;-60
2022/07/13 04:24:59;;;;;;;10.95;9.25;;;20.50;99.90;;;;;;5033142;28;20035;-61
2022/07/13 04:27:25;;;;;;;8.95;7.93;;;20.60;99.90;;;;;;5035483;28;20065;-61
2022/07/13 04:29:51;;;;;;;8.52;6.97;;;20.60;99.90;;;;;;5040434;28;20042;-62
2022/07/13 04:32:16;;;;;;;9.70;8.23;;;20.60;99.90;;;;;;5031744;28;20041;-58
2022/07/13 04:34:42;;;;;;;10.25;9.25;;;20.60;99.90;;;;;;5015003;28;20080;-60
2022/07/13 04:37:08;;;;;;;8.43;7.63;;;20.60;99.90;;;;;;5030057;28;20037;-60
2022/07/13 04:39:33;;;;;;;10.05;8.65;;;20.60;99.90;;;;;;5024197;28;20044;-60
2022/07/13 04:41:59;;;;;;;12.60;9.57;;;20.60;99.90;;;;;;5033425;28;20508;-63
2022/07/13 04:44:28;;;;;;;11.23;10.05;;;20.60;99.90;;;;;;5015294;28;20033;-61
2022/07/13 04:46:54;;;;;;;10.68;8.68;;;20.60;99.90;;;;;;5030273;28;20070;-61
2022/07/13 04:49:20;;;;;;;9.52;8.45;;;20.60;99.90;;;;;;5020277;28;20033;-60
2022/07/13 04:51:50;;;;;;;8.25;7.25;;;20.60;99.90;;;;;;5031769;28;20039;-61
2022/07/13 04:54:20;;;;;;;10.85;9.50;;;20.60;99.90;;;;;;5015513;28;20045;-61
2022/07/13 04:56:47;;;;;;;10.48;9.38;;;20.60;99.90;;;;;;5026610;28;20524;-61
2022/07/13 04:59:12;;;;;;;10.38;9.30;;;20.60;99.90;;;;;;5033825;28;20160;-60
2022/07/13 05:01:39;;;;;;;10.18;9.18;;;20.60;99.90;;;;;;5031517;28;20519;-61
2022/07/13 05:04:05;;;;;;;11.75;10.55;;;20.60;99.90;;;;;;5036774;28;20049;-63
2022/07/13 05:06:31;;;;;;;11.13;9.98;;;20.60;99.90;;;;;;5012814;28;20045;-61
2022/07/13 05:08:58;;;;;;;11.48;10.18;;;20.60;99.90;;;;;;5031413;28;20033;-60
2022/07/13 05:11:24;;;;;;;11.75;10.57;;;20.70;99.90;;;;;;5029832;28;20041;-61
2022/07/13 05:13:50;;;;;;;12.60;11.30;;;20.60;99.90;;;;;;5013517;28;20500;-61
2022/07/13 05:16:16;;;;;;;14.43;11.07;;;20.60;99.90;;;;;;5029561;28;20495;-59
2022/07/13 05:18:42;;;;;;;15.48;12.07;;;20.50;99.90;;;;;;5030022;28;20045;-59
2022/07/13 05:21:08;;;;;;;14.35;11.20;;;20.50;99.90;;;;;;5034942;28;20133;-58
2022/07/13 05:23:37;;;;;;;12.90;10.40;;;20.50;99.90;;;;;;5046068;28;20389;-61
2022/07/13 05:26:06;;;;;;;13.60;11.80;;;20.50;99.90;;;;;;5033382;28;20050;-59
2022/07/13 05:28:32;;;;;;;12.50;11.20;;;20.50;99.90;;;;;;5031020;28;20125;-60
2022/07/13 05:30:58;;;;;;;13.93;11.55;;;20.50;99.90;;;;;;5032789;28;20120;-57
2022/07/13 05:33:24;;;;;;;13.80;11.70;;;20.50;99.90;;;;;;5029662;28;20434;-60
2022/07/13 05:35:49;;;;;;;16.23;12.32;;;20.50;99.90;;;;;;5015646;28;20099;-61
2022/07/13 05:38:15;;;;;;;13.75;11.43;;;20.50;99.90;;;;;;5030409;28;20053;-62
2022/07/13 05:40:41;;;;;;;13.45;12.13;;;20.60;99.90;;;;;;5008327;28;20137;-61
2022/07/13 05:43:07;;;;;;;14.73;10.93;;;20.60;99.90;;;;;;5023109;28;20132;-60
2022/07/13 05:45:33;;;;;;;12.38;10.50;;;20.60;99.90;;;;;;5029738;28;20048;-60
2022/07/13 05:47:59;;;;;;;13.52;11.98;;;20.60;99.90;;;;;;5031418;28;20504;-61
2022/07/13 05:50:24;;;;;;;13.88;11.15;;;20.70;99.90;;;;;;5039453;22;20365;-58
2022/07/13 05:52:50;;;;;;;10.15;9.10;;;20.70;99.90;;;;;;5029685;28;20045;-57
2022/07/13 05:55:17;;;;;;;11.15;8.80;;;20.70;99.90;;;;;;5027298;28;20045;-55
2022/07/13 05:57:44;;;;;;;11.45;8.98;;;20.70;99.90;;;;;;5065953;28;20047;-58
2022/07/13 06:00:12;;;;;;;14.23;9.77;;;20.80;99.90;;;;;;5059236;28;20053;-58
2022/07/13 06:02:42;;;;;;;10.60;8.88;;;20.80;99.90;;;;;;5076124;28;20040;-58
2022/07/13 06:05:08;;;;;;;9.70;7.28;;;20.80;99.90;;;;;;5067586;28;20055;-58
2022/07/13 06:07:34;;;;;;;10.85;7.95;;;20.70;99.90;;;;;;5044718;28;20037;-58
2022/07/13 06:10:01;;;;;;;10.55;7.72;;;20.70;99.90;;;;;;5074694;28;20051;-57
2022/07/13 06:12:27;;;;;;;10.18;7.25;;;20.80;99.90;;;;;;5073313;28;20028;-58
2022/07/13 06:14:54;;;;;;;12.00;7.93;;;20.80;99.90;;;;;;5076835;28;20028;-57
2022/07/13 06:17:20;;;;;;;11.32;7.20;;;20.90;99.90;;;;;;5052701;28;20071;-56
2022/07/13 06:19:46;;;;;;;14.82;8.40;;;20.90;99.90;;;;;;5069341;28;20049;-58
2022/07/13 06:22:11;;;;;;;10.95;8.45;;;21.00;99.90;;;;;;5063957;28;20458;-58
2022/07/13 06:24:37;;;;;;;14.05;8.55;;;21.00;99.90;;;;;;5058501;28;20067;-56
2022/07/13 06:27:03;;;;;;;13.77;8.45;;;21.00;99.90;;;;;;5076967;28;20534;-55
2022/07/13 06:29:29;;;;;;;11.25;8.55;;;21.10;99.90;;;;;;5053438;28;20505;-56
2022/07/13 06:31:54;;;;;;;12.35;9.02;;;21.10;99.90;;;;;;5066624;28;20119;-56
2022/07/13 06:34:20;;;;;;;14.55;9.88;;;21.30;99.90;;;;;;5062397;28;20047;-58
2022/07/13 06:36:46;;;;;;;16.70;10.98;;;21.30;99.90;;;;;;5065615;28;20048;-59
2022/07/13 06:39:11;;;;;;;11.18;8.57;;;21.40;99.90;;;;;;5069363;28;20079;-55
2022/07/13 06:41:37;;;;;;;13.52;10.35;;;21.40;99.90;;;;;;5069678;28;20091;-53
2022/07/13 06:44:03;;;;;;;14.15;10.85;;;21.50;99.90;;;;;;5065374;28;20136;-56
2022/07/13 06:46:29;;;;;;;17.15;11.05;;;21.40;99.90;;;;;;5068851;28;20125;-56
2022/07/13 06:48:54;;;;;;;16.60;10.73;;;21.50;99.90;;;;;;5073389;28;20441;-56
2022/07/13 06:51:20;;;;;;;13.23;10.38;;;21.50;99.90;;;;;;5064293;28;20050;-59
2022/07/13 06:53:46;;;;;;;12.98;9.98;;;21.70;99.90;;;;;;5069837;28;20033;-56
2022/07/13 06:56:12;;;;;;;13.77;10.90;;;21.70;99.90;;;;;;5069826;28;20048;-56
2022/07/13 06:58:38;;;;;;;14.63;11.02;;;21.80;99.90;;;;;;5049552;28;20082;-56
2022/07/13 07:01:07;;;;;;;14.60;11.02;;;21.70;99.90;;;;;;5046408;28;20052;-56
2022/07/13 07:03:33;;;;;;;15.15;10.52;;;21.60;99.90;;;;;;5035502;28;20048;-57
2022/07/13 07:05:58;;;;;;;18.88;11.65;;;21.70;99.90;;;;;;5077836;28;20534;-59
2022/07/13 07:08:24;;;;;;;13.13;10.48;;;21.90;99.90;;;;;;5065430;28;20040;-57
2022/07/13 07:10:50;;;;;;;10.82;9.35;;;22.00;99.90;;;;;;5070698;28;20036;-55
2022/07/13 07:13:16;;;;;;;13.48;9.88;;;22.10;99.90;;;;;;5068286;28;20040;-56
2022/07/13 07:15:41;;;;;;;14.82;10.65;;;22.20;99.90;;;;;;5068210;28;20081;-55
2022/07/13 07:18:07;;;;;;;13.07;8.65;;;22.30;99.90;;;;;;5070668;28;20471;-56
2022/07/13 07:20:33;;;;;;;13.15;9.77;;;22.40;99.90;;;;;;5065967;28;20033;-58
2022/07/13 07:22:59;;;;;;;13.20;9.38;;;22.40;99.90;;;;;;5070583;28;20044;-58
2022/07/13 07:25:25;;;;;;;11.90;10.32;;;22.40;99.90;;;;;;5069079;28;20173;-56
2022/07/13 07:27:51;;;;;;;13.27;9.73;;;22.40;99.90;;;;;;5072479;28;20120;-55
2022/07/13 07:30:17;;;;;;;11.95;9.20;;;22.30;99.90;;;;;;5069597;28;20036;-56
2022/07/13 07:32:43;;;;;;;16.88;9.32;;;22.50;99.90;;;;;;5063805;28;20097;-56
2022/07/13 07:35:09;;;;;;;13.75;8.63;;;22.60;99.90;;;;;;5050684;28;20044;-59
2022/07/13 07:37:37;;;;;;;15.63;8.27;;;22.70;99.90;;;;;;5066896;28;20048;-59
2022/07/13 07:40:04;;;;;;;12.25;9.00;;;22.80;99.90;;;;;;5068705;28;20143;-56
2022/07/13 07:42:29;;;;;;;11.80;8.18;;;22.70;99.90;;;;;;5068943;28;20063;-57
2022/07/13 07:44:56;;;;;;;11.85;8.82;;;22.80;99.90;;;;;;5060734;28;20045;-56
2022/07/13 07:47:25;;;;;;;12.98;9.18;;;22.90;99.90;;;;;;5070788;28;20047;-55
2022/07/13 07:49:52;;;;;;;13.25;8.73;;;22.80;99.90;;;;;;5068500;28;20036;-59
2022/07/13 07:52:18;;;;;;;9.40;7.90;;;23.00;99.90;;;;;;5067777;28;20028;-58
2022/07/13 07:54:45;;;;;;;11.23;7.72;;;23.10;99.90;;;;;;5069384;28;20479;-55
2022/07/13 07:57:11;;;;;;;9.75;6.10;;;23.20;99.90;;;;;;5044135;28;20487;-56
2022/07/13 07:59:37;;;;;;;10.88;5.88;;;23.30;99.90;;;;;;5065327;28;20102;-56
2022/07/13 08:02:03;;;;;;;7.45;6.65;;;23.50;99.90;;;;;;5064904;28;20041;-57
2022/07/13 08:04:28;;;;;;;9.60;5.15;;;23.60;99.90;;;;;;5067376;28;20101;-60
2022/07/13 08:06:54;;;;;;;9.82;5.38;;;23.70;99.90;;;;;;5068436;28;20058;-59
2022/07/13 08:09:20;;;;;;;11.00;6.20;;;23.70;99.90;;;;;;5063606;28;20037;-54
2022/07/13 08:11:46;;;;;;;10.50;7.50;;;23.80;99.90;;;;;;5062211;28;20064;-55
2022/07/13 08:14:12;;;;;;;11.07;6.78;;;23.80;99.90;;;;;;5070240;28;20072;-57
2022/07/13 08:16:38;;;;;;;10.27;6.47;;;23.90;99.90;;;;;;5069726;28;20049;-57
2022/07/13 08:19:04;;;;;;;6.28;4.38;;;24.00;99.90;;;;;;5078215;28;20121;-59
2022/07/13 08:21:30;;;;;;;9.48;4.82;;;24.10;99.90;;;;;;5063814;28;20441;-59
2022/07/13 08:23:55;;;;;;;6.57;5.40;;;24.10;99.90;;;;;;5074835;28;20079;-57
2022/07/13 08:26:27;;;;;;;9.77;5.20;;;24.20;99.90;;;;;;5070844;28;20415;-57
2022/07/13 08:28:54;;;;;;;7.72;5.28;;;24.30;99.90;;;;;;5068092;28;20491;-57
2022/07/13 08:31:22;;;;;;;8.27;5.85;;;24.30;99.90;;;;;;5066569;28;20028;-57
2022/07/13 08:39:17;;;;;;;5.53;4.28;;;24.60;99.90;;;;;;5062636;28;20044;-54
2022/07/13 08:41:43;;;;;;;6.03;4.25;;;24.70;99.90;;;;;;5071831;28;20111;-59
2022/07/13 08:44:10;;;;;;;7.55;4.07;;;24.80;99.90;;;;;;5038749;28;20063;-57
2022/07/13 08:46:37;;;;;;;5.57;3.60;;;24.90;99.50;;;;;;5068529;28;20479;-57
2022/07/13 08:49:04;;;;;;;7.22;3.47;;;24.80;99.50;;;;;;5067403;28;20041;-57
2022/07/13 08:51:34;;;;;;;5.55;3.38;;;25.00;99.30;;;;;;5067571;28;20037;-57
2022/07/13 08:54:02;;;;;;;5.80;3.40;;;25.10;98.60;;;;;;5066160;28;20364;-59
2022/07/13 08:56:28;;;;;;;7.70;3.33;;;25.10;98.70;;;;;;5072783;28;20044;-59
2022/07/13 08:58:54;;;;;;;4.95;3.25;;;25.10;98.60;;;;;;5067078;28;20468;-59
2022/07/13 09:01:19;;;;;;;5.65;3.38;;;24.90;98.10;;;;;;5059081;28;20036;-57
2022/07/13 09:03:46;;;;;;;6.93;3.03;;;24.90;98.20;;;;;;5062348;28;20029;-58
2022/07/13 09:06:39;;;;;;;7.50;3.10;;;24.90;97.80;;;;;;5070981;28;20395;-57
2022/07/13 09:09:24;;;;;;;5.03;3.10;;;25.10;98.00;;;;;;5062512;28;20044;-57
2022/07/13 09:11:50;;;;;;;6.22;3.67;;;25.30;98.40;;;;;;5073940;28;20067;-57
2022/07/13 09:14:26;;;;;;;6.05;3.33;;;25.50;98.40;;;;;;5072417;28;20083;-59
2022/07/13 09:16:52;;;;;;;6.18;3.80;;;25.60;97.60;;;;;;5072666;28;20458;-57
2022/07/13 09:19:23;;;;;;;8.23;4.55;;;25.70;97.90;;;;;;5073408;28;20036;-57
2022/07/13 09:21:49;;;;;;;7.45;4.55;;;25.70;97.80;;;;;;5069508;28;20037;-57
2022/07/13 09:24:14;;;;;;;7.85;3.90;;;25.80;97.70;;;;;;5059841;28;20107;-57
2022/07/13 09:26:45;;;;;;;6.85;4.22;;;25.80;97.80;;;;;;5070561;28;20052;-60
2022/07/13 09:29:12;;;;;;;6.82;3.70;;;25.80;97.80;;;;;;5069904;28;20048;-61
2022/07/13 09:31:55;;;;;;;4.85;3.45;;;25.80;98.00;;;;;;5054032;28;20068;-58
2022/07/13 09:34:41;;;;;;;6.33;3.77;;;25.90;97.50;;;;;;5089204;28;20046;-57
2022/07/13 09:37:11;;;;;;;8.75;4.45;;;26.00;97.20;;;;;;5070442;28;20043;-59
2022/07/13 09:39:57;;;;;;;10.57;6.20;;;25.50;95.60;;;;;;5054616;28;20466;-57
2022/07/13 09:42:31;;;;;;;6.65;4.28;;;24.90;95.80;;;;;;5055859;28;20048;-57
2022/07/13 09:47:53;;;;;;;6.70;4.32;;;25.20;97.70;;;;;;5057134;28;20045;-57
2022/07/13 09:50:20;;;;;;;4.72;3.22;;;25.50;97.70;;;;;;5051943;28;20368;-62
2022/07/13 09:52:47;;;;;;;8.50;4.30;;;25.60;97.00;;;;;;5076796;28;20044;-59
2022/07/13 09:55:19;;;;;;;5.03;3.40;;;25.80;96.80;;;;;;5070398;28;20578;-57
2022/07/13 09:57:58;;;;;;;5.72;3.20;;;25.80;96.00;;;;;;5069897;28;20198;-58
2022/07/13 10:00:24;;;;;;;7.72;4.50;;;25.60;95.50;;;;;;5067494;28;20037;-57
2022/07/13 10:02:50;;;;;;;4.57;3.60;;;25.30;95.30;;;;;;5074043;28;20036;-60
2022/07/13 10:05:19;;;;;;;6.32;4.70;;;25.50;96.70;;;;;;5069655;28;20487;-58
2022/07/13 10:07:47;;;;;;;7.53;4.50;;;25.80;96.80;;;;;;5066652;28;20033;-58
2022/07/13 10:10:15;;;;;;;5.07;3.40;;;26.00;96.70;;;;;;5064419;28;20711;-58
2022/07/13 10:12:43;;;;;;;8.90;4.30;;;26.20;96.90;;;;;;5070309;28;20039;-58
2022/07/13 10:15:10;;;;;;;4.95;3.47;;;26.00;94.90;;;;;;5069286;28;20072;-60
2022/07/13 10:17:38;;;;;;;6.15;4.00;;;25.90;96.00;;;;;;5074262;28;20040;-61
2022/07/13 10:20:05;;;;;;;4.90;3.20;;;25.80;96.00;;;;;;5069132;28;20045;-58
2022/07/13 10:22:45;;;;;;;7.57;3.42;;;26.00;95.80;;;;;;5048295;28;20119;-58
2022/07/13 10:25:12;;;;;;;4.75;3.03;;;25.80;93.60;;;;;;5072787;28;20036;-55
2022/07/13 10:27:38;;;;;;;5.72;2.58;;;25.70;94.70;;;;;;5070772;28;20052;-60
2022/07/13 10:30:10;;;;;;;3.78;2.80;;;25.90;95.60;;;;;;5054711;28;20243;-58
2022/07/13 10:32:40;;;;;;;4.82;2.70;;;26.10;94.30;;;;;;5065537;28;20499;-57
2022/07/13 10:35:09;;;;;;;6.80;3.50;;;26.20;94.50;;;;;;5053195;28;20054;-58
2022/07/13 10:37:56;;;;;;;3.70;2.75;;;26.20;94.60;;;;;;5085854;28;20037;-58
2022/07/13 10:40:24;;;;;;;5.38;3.13;;;26.20;94.40;;;;;;5066017;28;20314;-58
2022/07/13 10:43:00;;;;;;;4.15;2.65;;;26.10;93.90;;;;;;5069814;28;20051;-57
2022/07/13 10:45:38;;;;;;;6.10;2.50;;;25.90;93.70;;;;;;5064820;28;20098;-57
2022/07/13 10:48:07;;;;;;;4.47;2.08;;;25.70;94.30;;;;;;5066946;28;20045;-59
2022/07/13 10:50:47;;;;;;;2.53;2.33;;;26.00;94.60;;;;;;5068814;28;20044;-57
2022/07/13 10:53:15;;;;;;;3.78;2.30;;;26.00;94.60;;;;;;5069125;28;20406;-57
2022/07/13 10:55:51;;;;;;;2.67;2.00;;;25.80;94.20;;;;;;5065147;28;20079;-60
2022/07/13 10:58:32;;;;;;;4.70;1.95;;;25.90;93.40;;;;;;5065581;28;20477;-58
2022/07/13 11:01:22;;;;;;;3.42;1.90;;;26.20;94.00;;;;;;5066686;28;20108;-58
2022/07/13 11:03:48;;;;;;;5.22;2.30;;;26.50;94.50;;;;;;5067945;28;20450;-60
2022/07/13 11:06:20;;;;;;;4.60;2.72;;;26.70;94.70;;;;;;5069358;28;20083;-53
2022/07/13 11:09:06;;;;;;;9.27;3.70;;;26.30;94.30;;;;;;5062373;28;20406;-53
2022/07/13 11:11:32;;;;;;;4.70;2.50;;;26.10;96.00;;;;;;5066530;28;20074;-59
2022/07/13 11:13:58;;;;;;;5.90;2.10;;;26.10;95.50;;;;;;5076130;28;20051;-53
2022/07/13 11:16:48;;;;;;;3.25;1.92;;;25.90;95.40;;;;;;5067834;28;20049;-56
2022/07/13 11:19:15;;;;;;;4.97;2.33;;;25.90;95.20;;;;;;5067240;28;20044;-54
2022/07/13 11:22:10;;;;;;;3.25;2.45;;;25.70;94.70;;;;;;5076998;28;20063;-57
2022/07/13 11:27:48;;;;;;;7.13;3.42;;;25.50;97.30;;;;;;5077944;28;20063;-53
2022/07/13 11:30:22;;;;;;;5.28;3.28;;;25.60;97.50;;;;;;5067002;28;20048;-57
2022/07/13 11:32:48;;;;;;;5.97;2.90;;;25.80;97.60;;;;;;5073386;28;20489;-56
2022/07/13 11:35:14;;;;;;;7.38;3.95;;;26.10;98.00;;;;;;5061637;28;20526;-56
2022/07/13 11:37:42;;;;;;;9.27;3.78;;;26.10;97.40;;;;;;5068792;28;20051;-52
2022/07/13 11:40:08;;;;;;;4.35;3.28;;;26.00;97.20;;;;;;5067766;28;20514;-51
2022/07/13 11:42:34;;;;;;;6.05;3.25;;;25.90;97.20;;;;;;5067775;28;20128;-53
2022/07/13 11:45:00;;;;;;;5.55;3.17;;;25.70;97.50;;;;;;5064296;28;20115;-51
2022/07/13 11:47:27;;;;;;;5.47;2.97;;;25.50;97.70;;;;;;5068280;28;20467;-52
2022/07/13 11:49:54;;;;;;;10.00;3.08;;;25.60;97.90;;;;;;5064921;28;20514;-60
2022/07/13 11:52:39;;;;;;;7.00;3.22;;;25.80;97.70;;;;;;5066994;23;20039;-81
2022/07/13 11:55:05;;;;;;;6.20;3.00;;;26.20;97.70;;;;;;5048461;28;20406;-81
2022/07/13 11:57:32;;;;;;;4.93;2.53;;;25.80;97.80;;;;;;5031272;28;20408;-81
2022/07/13 12:00:04;;;;;;;6.88;3.05;;;25.90;98.00;;;;;;5080037;28;20040;-81
2022/07/13 12:02:30;;;;;;;8.45;2.95;;;26.30;98.00;;;;;;5042149;28;20033;-81
2022/07/13 12:05:03;;;;;;;5.93;2.70;;;26.50;97.80;;;;;;5017263;28;20045;-81
2022/07/13 12:07:30;;;;;;;8.00;3.67;;;26.50;97.60;;;;;;5031868;28;20091;-80
2022/07/13 12:09:58;;;;;;;6.30;3.60;;;26.10;97.50;;;;;;5051581;28;20033;-81
2022/07/13 12:12:35;;;;;;;11.57;4.03;;;25.80;98.50;;;;;;5036965;28;20037;-81
2022/07/13 12:15:09;;;;;;;9.32;3.88;;;25.80;98.90;;;;;;5045684;28;20402;-81
2022/07/13 12:17:48;;;;;;;5.63;3.30;;;25.60;99.20;;;;;;5052948;28;20072;-81
2022/07/13 12:20:19;;;;;;;7.95;3.53;;;25.60;99.50;;;;;;5052000;28;20288;-81
2022/07/13 12:23:06;;;;;;;10.18;4.13;;;25.60;99.10;;;;;;5034774;28;20566;-81
2022/07/13 12:25:33;;;;;;;9.40;3.78;;;25.30;99.40;;;;;;5051084;28;20041;-81
2022/07/13 12:28:00;;;;;;;8.98;3.70;;;25.00;99.70;;;;;;5043235;28;20032;-81
2022/07/13 12:30:27;;;;;;;7.05;3.85;;;25.00;99.90;;;;;;5034821;28;20517;-81
2022/07/13 12:33:12;;;;;;;9.68;3.90;;;25.10;99.90;;;;;;5033213;28;20040;-80
2022/07/13 12:35:41;;;;;;;8.48;3.67;;;25.30;99.70;;;;;;5036855;28;20123;-81
2022/07/13 12:38:11;;;;;;;9.93;3.33;;;25.50;99.90;;;;;;5007696;28;20037;-80
2022/07/13 12:40:40;;;;;;;9.05;3.83;;;25.40;99.90;;;;;;5027685;28;20099;-79
2022/07/13 12:43:23;;;;;;;4.72;3.15;;;25.50;99.90;;;;;;5046762;28;20033;-80
2022/07/13 12:45:54;;;;;;;6.75;3.20;;;25.50;99.90;;;;;;5056530;28;20075;-80
2022/07/13 12:48:24;;;;;;;8.68;2.92;;;25.30;99.90;;;;;;5040521;28;20039;-79
2022/07/13 12:50:59;;;;;;;5.85;3.42;;;24.90;99.90;;;;;;5023286;28;20040;-80